Dover, TN (37058)

12:17 PM CST on February 10, 2016 (GMT -0600)
Dover, TN - LBL | | Change Station
CLOSE
Current Station
Personal Weather Station
Location: Dover, TN
Elevation: 455 ft
Nearby Weather Stations

Elev 455 ft 36.49 °N, 87.81 °W | Updated 3 seconds ago

Clear
Clear
27.4 °F
Feels Like 23 °F
N
3.6
Wind Variable Wind from West
Gusts 3.6 mph

Today
High -- | Low -- °F
--% Chance of Precip.
Yesterday
High -- | Low -- °F
Precip. -- in
Pressure 30.21 in
Visibility 10.0 miles
Clouds Scattered Clouds 14000 ft
Scattered Clouds 18000 ft
Windchill 23 °F
Dew Point 14 °F
Humidity 56%
Rainfall 0.00 in
Snow Depth Not available.
6:45 AM 5:26 PM
Waxing Crescent, 6% visible
METAR KHOP 101758Z AUTO 31007KT 10SM SCT140 SCT180 M05/M13 A3018 RMK AO2 SLP230 T10491129 11049 21102 58005
Pressure 30.21 in
Visibility 10.0 miles
Clouds Scattered Clouds 14000 ft
Scattered Clouds 18000 ft
Windchill 23 °F
Dew Point 14 °F
Humidity 56%
Rainfall 0.00 in
Snow Depth Not available.
6:45 AM 5:26 PM
Waxing Crescent, 6% visible
METAR KHOP 101758Z AUTO 31007KT 10SM SCT140 SCT180 M05/M13 A3018 RMK AO2 SLP230 T10491129 11049 21102 58005

10-Day Weather Forecast

Almanac

Astronomy

Feb. 10, 2016 Rise Set
Actual Time
Civil Twilight
Nautical Twilight
Astronomical Twilight
Moon
Length of Visible Light
Length of Day
Tomorrow will be .
, % of the Moon is Illuminated

Today's Extremes

State Highs State Lows

Community

WunderPhotos

Upload Photos

1,891,906 photos uploaded!

WunderBlog® & News

Nearby

Air Quality

  Air Quality AQ Index Pollutant
Not available.

Snow Depth

Station Depth Elevation

Earthquake Activity

City Distance Mag. Time & Date
Minimum magnitude displayed is 2.5.

Coastal Water Temperatures

Place Temperature

Stations

Nearby Weather Stations

Station Location Temp. Windchill Dew Point Humidity Wind Precip. Elev Updated Type
                   

Watches & Warnings

There are currently no watches in effect.